Time,TemperatureF,DewpointF,PressureIn,WindDirection,WindDirectionDegrees,WindSpeedMPH,WindSpeedGustMPH,Humidity,HourlyPrecipIn,Conditions,Clouds,dailyrainin,SolarRadiationWatts/m^2,SoftwareType,DateUTC
2013-01-03 00:03:00,14.4,8.8,30.49,SW,221,0.0,0.0,78,0.00,,,0.00,1,WeatherHawk,2013-01-03 08:03:00,
2013-01-03 00:08:00,14.5,8.9,30.49,WSW,245,0.0,0.0,78,0.00,,,0.00,0,WeatherHawk,2013-01-03 08:08:00,
2013-01-03 00:14:00,14.5,8.9,30.49,WSW,257,0.0,0.0,78,0.00,,,0.00,0,WeatherHawk,2013-01-03 08:14:00,
2013-01-03 00:19:00,14.5,9.2,30.49,WSW,257,0.0,-999.0,79,0.00,,,0.00,0,WeatherHawk,2013-01-03 08:19:00,
2013-01-03 00:24:00,14.4,9.1,30.48,WNW,291,5.0,-999.0,79,0.00,,,0.00,0,WeatherHawk,2013-01-03 08:24:00,
2013-01-03 00:29:00,14.3,9.0,30.49,WSW,247,2.0,-999.0,79,0.00,,,0.00,1,WeatherHawk,2013-01-03 08:29:00,
2013-01-03 00:35:00,14.3,9.3,30.48,WSW,240,2.0,0.0,80,0.00,,,0.00,0,WeatherHawk,2013-01-03 08:35:00,
2013-01-03 00:40:00,14.3,9.3,30.49,SW,236,0.0,0.0,80,0.00,,,0.00,0,WeatherHawk,2013-01-03 08:40:00,
2013-01-03 00:45:00,14.4,9.7,30.48,West,265,0.0,0.0,81,0.00,,,0.00,0,WeatherHawk,2013-01-03 08:45:00,
2013-01-03 00:50:00,14.4,10.2,30.48,West,274,0.0,0.0,83,0.00,,,0.00,1,WeatherHawk,2013-01-03 08:50:00,
2013-01-03 00:55:00,14.3,9.6,30.48,WSW,257,0.0,0.0,81,0.00,,,0.00,0,WeatherHawk,2013-01-03 08:55:00,
2013-01-03 01:01:00,14.4,9.9,30.48,WNW,293,2.0,0.0,82,0.00,,,0.00,0,WeatherHawk,2013-01-03 09:01:00,
2013-01-03 01:06:00,14.4,10.0,30.48,West,273,3.0,0.0,82,0.00,,,0.00,0,WeatherHawk,2013-01-03 09:06:00,
2013-01-03 01:11:00,14.3,9.9,30.48,West,260,1.0,0.0,82,0.00,,,0.00,0,WeatherHawk,2013-01-03 09:11:00,
2013-01-03 01:16:00,14.4,9.3,30.48,WNW,287,4.0,0.0,80,0.00,,,0.00,0,WeatherHawk,2013-01-03 09:16:00,
2013-01-03 01:22:00,14.2,8.6,30.47,WSW,246,2.0,0.0,78,0.00,,,0.00,0,WeatherHawk,2013-01-03 09:22:00,
2013-01-03 01:27:00,14.2,8.3,30.47,West,271,3.0,0.0,77,0.00,,,0.00,1,WeatherHawk,2013-01-03 09:27:00,
2013-01-03 01:32:00,14.3,8.7,30.47,NW,315,2.0,0.0,78,0.00,,,0.00,0,WeatherHawk,2013-01-03 09:32:00,
2013-01-03 01:37:00,14.3,9.3,30.48,West,276,2.0,0.0,80,0.00,,,0.00,1,WeatherHawk,2013-01-03 09:37:00,
2013-01-03 01:43:00,14.3,9.3,30.47,West,264,0.0,0.0,80,0.00,,,0.00,1,WeatherHawk,2013-01-03 09:43:00,
2013-01-03 01:48:00,14.3,9.3,30.48,WSW,256,0.0,0.0,80,0.00,,,0.00,0,WeatherHawk,2013-01-03 09:48:00,
2013-01-03 01:54:00,14.4,9.4,30.48,WSW,250,1.0,0.0,80,0.00,,,0.00,0,WeatherHawk,2013-01-03 09:54:00,
2013-01-03 01:59:00,14.4,9.3,30.48,WSW,251,0.0,0.0,80,0.00,,,0.00,0,WeatherHawk,2013-01-03 09:59:00,
2013-01-03 02:04:00,14.4,9.4,30.48,West,281,2.0,0.0,80,0.00,,,0.00,0,WeatherHawk,2013-01-03 10:04:00,
2013-01-03 02:09:00,14.4,9.1,30.48,WSW,240,2.0,0.0,79,0.00,,,0.00,0,WeatherHawk,2013-01-03 10:09:00,
2013-01-03 02:14:00,14.6,9.6,30.48,WNW,283,4.0,-999.0,80,0.00,,,0.00,0,WeatherHawk,2013-01-03 10:14:00,
2013-01-03 02:19:00,14.6,9.3,30.48,West,273,0.0,0.0,79,0.00,,,0.00,0,WeatherHawk,2013-01-03 10:19:00,
2013-01-03 02:24:00,14.7,9.3,30.48,WNW,291,3.0,0.0,79,0.00,,,0.00,0,WeatherHawk,2013-01-03 10:24:00,
2013-01-03 02:29:00,14.7,9.4,30.48,NNW,328,4.0,-999.0,79,0.00,,,0.00,1,WeatherHawk,2013-01-03 10:29:00,
2013-01-03 02:34:00,14.7,9.4,30.47,NW,319,0.0,-999.0,79,0.00,,,0.00,0,WeatherHawk,2013-01-03 10:34:00,
2013-01-03 02:39:00,14.6,9.3,30.47,NNW,333,3.0,0.0,79,0.00,,,0.00,0,WeatherHawk,2013-01-03 10:39:00,
2013-01-03 02:44:00,14.9,9.9,30.47,NNW,327,6.0,0.0,80,0.00,,,0.00,0,WeatherHawk,2013-01-03 10:44:00,
2013-01-03 02:49:00,14.8,10.4,30.47,WNW,302,0.0,-999.0,82,0.00,,,0.00,0,WeatherHawk,2013-01-03 10:49:00,
2013-01-03 02:54:00,14.5,10.0,30.47,West,272,0.0,-999.0,82,0.00,,,0.00,0,WeatherHawk,2013-01-03 10:54:00,
2013-01-03 02:59:00,14.5,10.3,30.47,NNW,332,0.0,0.0,83,0.00,,,0.00,0,WeatherHawk,2013-01-03 10:59:00,
2013-01-03 03:04:00,14.7,10.5,30.46,WSW,240,1.0,0.0,83,0.00,,,0.00,0,WeatherHawk,2013-01-03 11:04:00,
2013-01-03 03:09:00,14.6,9.8,30.46,West,268,1.0,-999.0,81,0.00,,,0.00,0,WeatherHawk,2013-01-03 11:09:00,
2013-01-03 03:14:00,14.2,9.2,30.47,West,277,6.0,-999.0,80,0.00,,,0.00,0,WeatherHawk,2013-01-03 11:14:00,
2013-01-03 03:19:00,14.2,9.4,30.46,WNW,303,5.0,-999.0,81,0.00,,,0.00,0,WeatherHawk,2013-01-03 11:19:00,
2013-01-03 03:24:00,14.2,9.5,30.46,WNW,299,1.0,-999.0,81,0.00,,,0.00,0,WeatherHawk,2013-01-03 11:24:00,
2013-01-03 03:29:00,14.2,9.4,30.46,WNW,283,3.0,-999.0,81,0.00,,,0.00,0,WeatherHawk,2013-01-03 11:29:00,
2013-01-03 03:34:00,14.0,9.0,30.45,West,268,1.0,0.0,80,0.00,,,0.00,0,WeatherHawk,2013-01-03 11:34:00,
2013-01-03 03:39:00,14.1,9.0,30.45,West,264,0.0,0.0,80,0.00,,,0.00,0,WeatherHawk,2013-01-03 11:39:00,
2013-01-03 03:44:00,14.0,9.0,30.45,NW,310,2.0,0.0,80,0.00,,,0.00,0,WeatherHawk,2013-01-03 11:44:00,
2013-01-03 03:49:00,13.9,8.9,30.45,NW,317,4.0,0.0,80,0.00,,,0.00,0,WeatherHawk,2013-01-03 11:49:00,
2013-01-03 03:54:00,13.8,8.5,30.45,NNW,333,5.0,0.0,79,0.00,,,0.00,0,WeatherHawk,2013-01-03 11:54:00,
2013-01-03 03:59:00,13.4,8.2,30.45,NNW,337,7.0,0.0,79,0.00,,,0.00,0,WeatherHawk,2013-01-03 11:59:00,
2013-01-03 04:04:00,13.4,8.4,30.45,NW,314,5.0,0.0,80,0.00,,,0.00,0,WeatherHawk,2013-01-03 12:04:00,
2013-01-03 04:09:00,13.1,8.1,30.45,NW,324,3.0,0.0,80,0.00,,,0.00,0,WeatherHawk,2013-01-03 12:09:00,
2013-01-03 04:14:00,13.2,8.2,30.45,NW,305,3.0,0.0,80,0.00,,,0.00,0,WeatherHawk,2013-01-03 12:14:00,
2013-01-03 04:19:00,13.2,8.8,30.44,NW,306,3.0,0.0,82,0.00,,,0.00,0,WeatherHawk,2013-01-03 12:19:00,
2013-01-03 04:24:00,13.1,8.9,30.44,NNW,341,2.0,0.0,83,0.00,,,0.00,0,WeatherHawk,2013-01-03 12:24:00,
2013-01-03 04:29:00,13.1,9.5,30.44,NNW,346,0.0,0.0,85,0.00,,,0.00,0,WeatherHawk,2013-01-03 12:29:00,
2013-01-03 04:34:00,13.1,9.2,30.44,NW,312,2.0,0.0,84,0.00,,,0.00,0,WeatherHawk,2013-01-03 12:34:00,
2013-01-03 04:39:00,13.1,8.9,30.44,NNW,335,0.0,-999.0,83,0.00,,,0.00,0,WeatherHawk,2013-01-03 12:39:00,
2013-01-03 04:44:00,13.0,8.8,30.44,NW,310,0.0,0.0,83,0.00,,,0.00,0,WeatherHawk,2013-01-03 12:44:00,
2013-01-03 04:49:00,12.9,9.0,30.44,NNW,344,3.0,0.0,84,0.00,,,0.00,0,WeatherHawk,2013-01-03 12:49:00,
2013-01-03 04:54:00,12.7,8.6,30.44,NW,318,0.0,0.0,83,0.00,,,0.00,0,WeatherHawk,2013-01-03 12:54:00,
2013-01-03 04:59:00,12.5,9.2,30.44,NNW,348,1.0,0.0,86,0.00,,,0.00,0,WeatherHawk,2013-01-03 12:59:00,
2013-01-03 05:04:00,12.5,9.4,30.43,NNW,345,0.0,-999.0,87,0.00,,,0.00,0,WeatherHawk,2013-01-03 13:04:00,
2013-01-03 05:09:00,12.7,9.8,30.43,NW,323,0.0,0.0,88,0.00,,,0.00,0,WeatherHawk,2013-01-03 13:09:00,
2013-01-03 05:14:00,12.4,9.6,30.43,NW,317,4.0,0.0,88,0.00,,,0.00,0,WeatherHawk,2013-01-03 13:14:00,
2013-01-03 05:19:00,12.4,9.8,30.43,NNW,338,1.0,0.0,89,0.00,,,0.00,0,WeatherHawk,2013-01-03 13:19:00,
2013-01-03 05:24:00,12.4,9.8,30.43,NW,323,0.0,-999.0,89,0.00,,,0.00,0,WeatherHawk,2013-01-03 13:24:00,
2013-01-03 05:29:00,12.2,9.3,30.43,NW,321,1.0,0.0,88,0.00,,,0.00,0,WeatherHawk,2013-01-03 13:29:00,
2013-01-03 05:34:00,12.1,9.5,30.44,NNW,327,4.0,-999.0,89,0.00,,,0.00,0,WeatherHawk,2013-01-03 13:34:00,
2013-01-03 05:39:00,11.9,9.6,30.44,North,350,5.0,0.0,90,0.00,,,0.00,0,WeatherHawk,2013-01-03 13:39:00,
2013-01-03 05:44:00,11.5,9.4,30.43,NW,314,4.0,0.0,91,0.00,,,0.00,0,WeatherHawk,2013-01-03 13:44:00,
2013-01-03 05:49:00,11.4,9.3,30.44,North,351,5.0,0.0,91,0.00,,,0.00,0,WeatherHawk,2013-01-03 13:49:00,
2013-01-03 05:54:00,11.5,9.4,30.44,NW,312,2.0,-999.0,91,0.00,,,0.00,0,WeatherHawk,2013-01-03 13:54:00,
2013-01-03 05:59:00,11.7,9.6,30.43,WNW,298,1.0,0.0,91,0.00,,,0.00,0,WeatherHawk,2013-01-03 13:59:00,
2013-01-03 06:04:00,12.0,9.9,30.44,West,269,0.0,0.0,91,0.00,,,0.00,0,WeatherHawk,2013-01-03 14:04:00,
2013-01-03 06:09:00,11.9,9.6,30.44,WSW,258,5.0,0.0,90,0.00,,,0.00,1,WeatherHawk,2013-01-03 14:09:00,
2013-01-03 06:14:00,12.1,9.0,30.43,WNW,291,5.0,-999.0,87,0.00,,,0.00,0,WeatherHawk,2013-01-03 14:14:00,
2013-01-03 06:19:00,11.8,8.4,30.44,WNW,301,4.0,0.0,86,0.00,,,0.00,0,WeatherHawk,2013-01-03 14:19:00,
2013-01-03 06:24:00,11.9,8.8,30.43,WSW,256,2.0,0.0,87,0.00,,,0.00,0,WeatherHawk,2013-01-03 14:24:00,
2013-01-03 06:29:00,11.9,8.6,30.44,WSW,253,0.0,0.0,86,0.00,,,0.00,1,WeatherHawk,2013-01-03 14:29:00,
2013-01-03 06:34:00,11.9,8.8,30.43,WSW,253,0.0,0.0,87,0.00,,,0.00,0,WeatherHawk,2013-01-03 14:34:00,
2013-01-03 06:39:00,11.7,8.8,30.43,WNW,282,1.0,0.0,88,0.00,,,0.00,1,WeatherHawk,2013-01-03 14:39:00,
2013-01-03 06:44:00,11.7,9.1,30.43,NW,323,0.0,-999.0,89,0.00,,,0.00,0,WeatherHawk,2013-01-03 14:44:00,
2013-01-03 06:49:00,11.5,9.2,30.44,NW,319,3.0,-999.0,90,0.00,,,0.00,0,WeatherHawk,2013-01-03 14:49:00,
2013-01-03 06:54:00,11.8,9.7,30.43,NNW,334,0.0,0.0,91,0.00,,,0.00,0,WeatherHawk,2013-01-03 14:54:00,
2013-01-03 06:59:00,11.4,9.3,30.44,North,350,3.0,-999.0,91,0.00,,,0.00,0,WeatherHawk,2013-01-03 14:59:00,
2013-01-03 07:04:00,10.8,9.0,30.44,North,349,4.0,0.0,92,0.00,,,0.00,0,WeatherHawk,2013-01-03 15:04:00,
2013-01-03 07:09:00,11.0,9.1,30.44,NNW,344,3.0,-999.0,92,0.00,,,0.00,0,WeatherHawk,2013-01-03 15:09:00,
2013-01-03 07:14:00,11.0,9.2,30.44,NNW,339,5.0,0.0,92,0.00,,,0.00,0,WeatherHawk,2013-01-03 15:14:00,
2013-01-03 07:19:00,10.9,9.1,30.44,WNW,290,4.0,-999.0,92,0.00,,,0.00,0,WeatherHawk,2013-01-03 15:19:00,
2013-01-03 07:24:00,10.4,8.6,30.44,NNW,340,1.0,-999.0,92,0.00,,,0.00,0,WeatherHawk,2013-01-03 15:24:00,
2013-01-03 07:29:00,10.3,8.4,30.44,NNW,342,2.0,-999.0,92,0.00,,,0.00,0,WeatherHawk,2013-01-03 15:29:00,
2013-01-03 07:35:00,9.5,7.4,30.44,NNW,342,0.0,0.0,91,0.00,,,0.00,3,WeatherHawk,2013-01-03 15:35:00,
2013-01-03 07:40:00,10.6,9.0,30.45,NW,324,2.0,0.0,93,0.00,,,0.00,3,WeatherHawk,2013-01-03 15:40:00,
2013-01-03 07:45:00,10.3,9.2,30.45,SSW,205,0.0,0.0,95,0.00,,,0.00,5,WeatherHawk,2013-01-03 15:45:00,
2013-01-03 07:50:00,10.7,9.6,30.45,West,259,0.0,0.0,95,0.00,,,0.00,7,WeatherHawk,2013-01-03 15:50:00,
2013-01-03 07:55:00,10.2,9.1,30.45,NNW,340,0.0,0.0,95,0.00,,,0.00,9,WeatherHawk,2013-01-03 15:55:00,
2013-01-03 08:00:00,10.2,8.8,30.46,NW,309,0.0,0.0,94,0.00,,,0.00,6,WeatherHawk,2013-01-03 16:00:00,
2013-01-03 08:05:00,8.8,6.9,30.45,SW,227,0.0,0.0,92,0.00,,,0.00,15,WeatherHawk,2013-01-03 16:05:00,
2013-01-03 08:10:00,10.5,8.9,30.46,SW,227,0.0,0.0,93,0.00,,,0.00,19,WeatherHawk,2013-01-03 16:10:00,
2013-01-03 08:15:00,10.2,8.6,30.46,NNW,338,0.0,0.0,93,0.00,,,0.00,21,WeatherHawk,2013-01-03 16:15:00,
2013-01-03 08:20:00,10.6,9.2,30.46,WSW,252,0.0,0.0,94,0.00,,,0.00,25,WeatherHawk,2013-01-03 16:20:00,
2013-01-03 08:25:00,10.5,8.9,30.46,WSW,242,0.0,0.0,93,0.00,,,0.00,29,WeatherHawk,2013-01-03 16:25:00,
2013-01-03 08:30:00,10.7,8.8,30.46,SW,236,0.0,0.0,92,0.00,,,0.00,37,WeatherHawk,2013-01-03 16:30:00,
2013-01-03 08:35:00,10.7,8.6,30.45,West,259,0.0,0.0,91,0.00,,,0.00,38,WeatherHawk,2013-01-03 16:35:00,
2013-01-03 08:40:00,10.6,8.3,30.46,WSW,256,2.0,0.0,90,0.00,,,0.00,48,WeatherHawk,2013-01-03 16:40:00,
2013-01-03 08:45:00,10.8,8.0,30.46,NNW,328,1.0,0.0,88,0.00,,,0.00,56,WeatherHawk,2013-01-03 16:45:00,
2013-01-03 08:50:00,11.0,7.9,30.45,WSW,240,0.0,0.0,87,0.00,,,0.00,50,WeatherHawk,2013-01-03 16:50:00,
2013-01-03 08:55:00,11.1,8.1,30.45,WSW,240,0.0,0.0,87,0.00,,,0.00,73,WeatherHawk,2013-01-03 16:55:00,
2013-01-03 09:00:00,11.1,7.5,30.45,West,270,0.0,0.0,85,0.00,,,0.00,59,WeatherHawk,2013-01-03 17:00:00,
2013-01-03 09:05:00,11.7,8.0,30.45,NW,313,0.0,0.0,85,0.00,,,0.00,81,WeatherHawk,2013-01-03 17:05:00,
2013-01-03 09:10:00,12.1,8.4,30.45,West,259,0.0,0.0,85,0.00,,,0.00,62,WeatherHawk,2013-01-03 17:10:00,
2013-01-03 09:15:00,10.8,6.9,30.45,NW,316,0.0,0.0,84,0.00,,,0.00,49,WeatherHawk,2013-01-03 17:15:00,
2013-01-03 09:20:00,10.7,6.6,30.45,NW,316,0.0,0.0,83,0.00,,,0.00,33,WeatherHawk,2013-01-03 17:20:00,
2013-01-03 09:26:00,10.8,7.5,30.45,WNW,294,2.0,0.0,86,0.00,,,0.00,37,WeatherHawk,2013-01-03 17:26:00,
2013-01-03 09:31:00,13.3,10.2,30.45,SW,218,0.0,0.0,87,0.00,,,0.00,158,WeatherHawk,2013-01-03 17:31:00,
2013-01-03 09:36:00,18.9,16.4,30.45,NNE,19,0.0,0.0,90,0.00,,,0.00,171,WeatherHawk,2013-01-03 17:36:00,
2013-01-03 09:41:00,13.0,7.2,30.46,NNE,19,0.0,0.0,77,0.00,,,0.00,178,WeatherHawk,2013-01-03 17:41:00,
2013-01-03 09:46:00,14.7,10.0,30.46,NE,34,0.0,0.0,81,0.00,,,0.00,183,WeatherHawk,2013-01-03 17:46:00,
2013-01-03 09:51:00,13.7,5.8,30.45,NE,34,0.0,0.0,70,0.00,,,0.00,193,WeatherHawk,2013-01-03 17:51:00,
2013-01-03 09:56:00,17.4,10.2,30.45,NE,34,0.0,0.0,73,0.00,,,0.00,202,WeatherHawk,2013-01-03 17:56:00,
2013-01-03 10:01:00,13.6,1.9,30.44,NE,34,0.0,0.0,59,0.00,,,0.00,208,WeatherHawk,2013-01-03 18:01:00,
2013-01-03 10:06:00,16.4,5.7,30.44,NE,34,0.0,0.0,62,0.00,,,0.00,215,WeatherHawk,2013-01-03 18:06:00,
2013-01-03 10:11:00,15.8,4.8,30.44,North,351,0.0,0.0,61,0.00,,,0.00,225,WeatherHawk,2013-01-03 18:11:00,
2013-01-03 10:16:00,16.7,3.3,30.43,North,351,0.0,0.0,55,0.00,,,0.00,226,WeatherHawk,2013-01-03 18:16:00,
2013-01-03 10:21:00,15.2,-0.5,30.44,North,351,0.0,0.0,49,0.00,,,0.00,236,WeatherHawk,2013-01-03 18:21:00,
2013-01-03 10:26:00,15.0,1.0,30.43,NW,326,0.0,0.0,53,0.00,,,0.00,239,WeatherHawk,2013-01-03 18:26:00,
2013-01-03 10:31:00,14.7,1.8,30.43,NNE,14,0.0,0.0,56,0.00,,,0.00,248,WeatherHawk,2013-01-03 18:31:00,
2013-01-03 10:36:00,14.4,2.0,30.42,NNE,25,3.0,0.0,57,0.00,,,0.00,251,WeatherHawk,2013-01-03 18:36:00,
2013-01-03 10:41:00,16.8,5.0,30.42,NNE,25,0.0,0.0,59,0.00,,,0.00,259,WeatherHawk,2013-01-03 18:41:00,
2013-01-03 10:46:00,17.0,4.8,30.42,ENE,58,2.0,0.0,58,0.00,,,0.00,263,WeatherHawk,2013-01-03 18:46:00,
2013-01-03 10:51:00,16.6,3.7,30.41,NE,55,3.0,0.0,56,0.00,,,0.00,267,WeatherHawk,2013-01-03 18:51:00,
2013-01-03 10:56:00,18.7,6.0,30.41,NNE,22,0.0,0.0,57,0.00,,,0.00,271,WeatherHawk,2013-01-03 18:56:00,
2013-01-03 11:02:00,16.8,3.5,30.41,NE,36,2.0,0.0,55,0.00,,,0.00,276,WeatherHawk,2013-01-03 19:02:00,
2013-01-03 11:07:00,16.6,2.9,30.40,ENE,62,3.0,0.0,54,0.00,,,0.00,280,WeatherHawk,2013-01-03 19:07:00,
2013-01-03 11:12:00,15.9,2.6,30.39,NE,53,4.0,0.0,55,0.00,,,0.00,283,WeatherHawk,2013-01-03 19:12:00,
2013-01-03 11:18:00,17.5,3.3,30.39,NNE,29,1.0,0.0,53,0.00,,,0.00,288,WeatherHawk,2013-01-03 19:18:00,
2013-01-03 11:56:00,21.0,3.0,30.36,NE,51,0.0,0.0,45,0.00,,,0.00,300,WeatherHawk,2013-01-03 19:56:00,
2013-01-03 12:01:00,22.1,4.0,30.36,NE,38,0.0,0.0,45,0.00,,,0.00,302,WeatherHawk,2013-01-03 20:01:00,
2013-01-03 12:06:00,21.4,2.9,30.35,NE,39,0.0,0.0,44,0.00,,,0.00,302,WeatherHawk,2013-01-03 20:06:00,
2013-01-03 12:11:00,20.2,1.8,30.35,NNW,348,1.0,0.0,44,0.00,,,0.00,301,WeatherHawk,2013-01-03 20:11:00,
2013-01-03 12:16:00,28.6,9.5,30.35,NNW,342,0.0,0.0,44,0.00,,,0.00,302,WeatherHawk,2013-01-03 20:16:00,
2013-01-03 12:21:00,19.5,-1.4,30.34,NW,315,2.0,0.0,39,0.00,,,0.00,301,WeatherHawk,2013-01-03 20:21:00,
2013-01-03 12:26:00,19.9,1.5,30.33,North,4,0.0,0.0,44,0.00,,,0.00,300,WeatherHawk,2013-01-03 20:26:00,
2013-01-03 12:31:00,20.6,1.7,30.33,NNE,19,0.0,0.0,43,0.00,,,0.00,298,WeatherHawk,2013-01-03 20:31:00,
2013-01-03 12:36:00,19.7,-0.7,30.33,NNE,18,2.0,0.0,40,0.00,,,0.00,276,WeatherHawk,2013-01-03 20:36:00,
2013-01-03 12:42:00,18.8,0.5,30.33,NNE,25,1.0,0.0,44,0.00,,,0.00,143,WeatherHawk,2013-01-03 20:42:00,
2013-01-03 12:47:00,21.7,3.7,30.33,NNE,19,2.0,0.0,45,0.00,,,0.00,344,WeatherHawk,2013-01-03 20:47:00,
2013-01-03 12:52:00,21.9,3.8,30.33,NNE,27,0.0,0.0,45,0.00,,,0.00,236,WeatherHawk,2013-01-03 20:52:00,
2013-01-03 12:57:00,21.6,1.5,30.33,NE,40,2.0,0.0,41,0.00,,,0.00,333,WeatherHawk,2013-01-03 20:57:00,
2013-01-03 13:02:00,22.1,2.6,30.32,NNE,24,2.0,0.0,42,0.00,,,0.00,288,WeatherHawk,2013-01-03 21:02:00,
2013-01-03 13:07:00,21.4,1.4,30.32,NNE,17,2.0,0.0,41,0.00,,,0.00,286,WeatherHawk,2013-01-03 21:07:00,
2013-01-03 13:12:00,20.9,0.5,30.31,NNE,26,4.0,0.0,40,0.00,,,0.00,235,WeatherHawk,2013-01-03 21:12:00,
2013-01-03 13:17:00,20.6,1.7,30.32,NE,36,0.0,0.0,43,0.00,,,0.00,105,WeatherHawk,2013-01-03 21:17:00,
2013-01-03 13:22:00,20.6,3.2,30.32,East,91,3.0,0.0,46,0.00,,,0.00,136,WeatherHawk,2013-01-03 21:22:00,
2013-01-03 13:28:00,21.7,3.7,30.31,East,92,3.0,0.0,45,0.00,,,0.00,279,WeatherHawk,2013-01-03 21:28:00,
2013-01-03 13:33:00,21.8,1.2,30.32,NE,55,1.0,0.0,40,0.00,,,0.00,143,WeatherHawk,2013-01-03 21:33:00,
2013-01-03 13:38:00,21.1,0.6,30.31,East,83,5.0,0.0,40,0.00,,,0.00,287,WeatherHawk,2013-01-03 21:38:00,
2013-01-03 13:44:00,20.9,2.0,30.30,NE,37,5.0,0.0,43,0.00,,,0.00,127,WeatherHawk,2013-01-03 21:44:00,
2013-01-03 13:49:00,21.2,2.3,30.30,ENE,75,2.0,0.0,43,0.00,,,0.00,257,WeatherHawk,2013-01-03 21:49:00,
2013-01-03 13:54:00,21.5,2.5,30.31,ESE,121,4.0,0.0,43,0.00,,,0.00,247,WeatherHawk,2013-01-03 21:54:00,
2013-01-03 13:59:00,21.7,3.2,30.30,SE,124,5.0,0.0,44,0.00,,,0.00,237,WeatherHawk,2013-01-03 21:59:00,
2013-01-03 14:04:00,21.6,2.6,30.30,East,101,4.0,0.0,43,0.00,,,0.00,240,WeatherHawk,2013-01-03 22:04:00,
2013-01-03 14:09:00,21.8,2.8,30.30,ESE,110,3.0,0.0,43,0.00,,,0.00,248,WeatherHawk,2013-01-03 22:09:00,
2013-01-03 14:14:00,23.7,4.0,30.31,NE,50,2.0,0.0,42,0.00,,,0.00,254,WeatherHawk,2013-01-03 22:14:00,
2013-01-03 14:19:00,22.6,3.0,30.30,NE,55,4.0,0.0,42,0.00,,,0.00,243,WeatherHawk,2013-01-03 22:19:00,
2013-01-03 14:24:00,22.0,3.5,30.30,ENE,73,4.0,0.0,44,0.00,,,0.00,209,WeatherHawk,2013-01-03 22:24:00,
2013-01-03 14:29:00,22.0,3.9,30.31,ENE,64,0.0,0.0,45,0.00,,,0.00,134,WeatherHawk,2013-01-03 22:29:00,
2013-01-03 14:34:00,21.5,4.5,30.31,ENE,73,5.0,0.0,47,0.00,,,0.00,109,WeatherHawk,2013-01-03 22:34:00,
2013-01-03 14:39:00,21.4,4.8,30.31,East,86,4.0,0.0,48,0.00,,,0.00,114,WeatherHawk,2013-01-03 22:39:00,
2013-01-03 14:44:00,20.9,4.4,30.31,ENE,57,3.0,0.0,48,0.00,,,0.00,122,WeatherHawk,2013-01-03 22:44:00,
2013-01-03 14:49:00,20.7,4.6,30.31,NE,51,3.0,0.0,49,0.00,,,0.00,185,WeatherHawk,2013-01-03 22:49:00,
2013-01-03 14:54:00,20.3,4.3,30.32,North,2,5.0,0.0,49,0.00,,,0.00,188,WeatherHawk,2013-01-03 22:54:00,
2013-01-03 14:59:00,20.7,5.0,30.32,North,1,3.0,0.0,50,0.00,,,0.00,176,WeatherHawk,2013-01-03 22:59:00,
2013-01-03 15:04:00,20.6,4.9,30.32,North,4,4.0,0.0,50,0.00,,,0.00,160,WeatherHawk,2013-01-03 23:04:00,
2013-01-03 15:09:00,20.3,5.1,30.32,NNW,340,5.0,0.0,51,0.00,,,0.00,144,WeatherHawk,2013-01-03 23:09:00,
2013-01-03 15:14:00,20.1,5.8,30.32,NNE,29,5.0,-999.0,53,0.00,,,0.00,131,WeatherHawk,2013-01-03 23:14:00,
2013-01-03 15:19:00,20.1,5.7,30.32,ENE,74,4.0,0.0,53,0.00,,,0.00,121,WeatherHawk,2013-01-03 23:19:00,
2013-01-03 15:24:00,21.4,6.9,30.33,North,351,3.0,0.0,53,0.00,,,0.00,113,WeatherHawk,2013-01-03 23:24:00,
2013-01-03 15:29:00,22.4,8.7,30.33,NNE,13,0.0,0.0,55,0.00,,,0.00,105,WeatherHawk,2013-01-03 23:29:00,
2013-01-03 15:34:00,20.3,6.7,30.33,NE,43,4.0,-999.0,55,0.00,,,0.00,62,WeatherHawk,2013-01-03 23:34:00,
2013-01-03 15:39:00,19.2,6.9,30.33,East,87,2.0,0.0,58,0.00,,,0.00,37,WeatherHawk,2013-01-03 23:39:00,
2013-01-03 15:44:00,20.5,8.1,30.34,North,6,3.0,0.0,58,0.00,,,0.00,75,WeatherHawk,2013-01-03 23:44:00,
2013-01-03 15:49:00,19.3,7.3,30.34,NNE,12,5.0,0.0,59,0.00,,,0.00,68,WeatherHawk,2013-01-03 23:49:00,
2013-01-03 15:54:00,19.0,7.8,30.34,NNE,16,4.0,-999.0,61,0.00,,,0.00,61,WeatherHawk,2013-01-03 23:54:00,
2013-01-03 15:59:00,18.9,8.0,30.34,ENE,65,0.0,0.0,62,0.00,,,0.00,54,WeatherHawk,2013-01-03 23:59:00,
2013-01-03 16:04:00,18.1,7.7,30.35,NNE,20,3.0,0.0,63,0.00,,,0.00,31,WeatherHawk,2013-01-04 00:04:00,
2013-01-03 16:09:00,18.0,8.5,30.34,NE,40,1.0,-999.0,66,0.00,,,0.00,15,WeatherHawk,2013-01-04 00:09:00,
2013-01-03 16:14:00,17.7,8.7,30.35,NE,38,4.0,-999.0,67,0.00,,,0.00,14,WeatherHawk,2013-01-04 00:14:00,
2013-01-03 16:19:00,17.9,8.9,30.35,NNE,30,3.0,0.0,67,0.00,,,0.00,13,WeatherHawk,2013-01-04 00:19:00,
2013-01-03 16:25:00,17.2,8.4,30.35,ENE,60,0.0,0.0,68,0.00,,,0.00,10,WeatherHawk,2013-01-04 00:25:00,
2013-01-03 16:30:00,17.2,8.5,30.36,NE,50,0.0,0.0,68,0.00,,,0.00,6,WeatherHawk,2013-01-04 00:30:00,
2013-01-03 16:35:00,17.9,9.8,30.36,ENE,75,2.0,0.0,70,0.00,,,0.00,5,WeatherHawk,2013-01-04 00:35:00,
2013-01-03 16:40:00,17.8,9.7,30.36,NE,47,4.0,0.0,70,0.00,,,0.00,3,WeatherHawk,2013-01-04 00:40:00,
2013-01-03 16:45:00,17.3,8.9,30.36,East,84,2.0,0.0,69,0.00,,,0.00,4,WeatherHawk,2013-01-04 00:45:00,
2013-01-03 16:50:00,17.5,9.1,30.36,ENE,76,2.0,0.0,69,0.00,,,0.00,1,WeatherHawk,2013-01-04 00:50:00,
2013-01-03 16:56:00,17.3,8.9,30.37,ESE,103,3.0,0.0,69,0.00,,,0.00,0,WeatherHawk,2013-01-04 00:56:00,
2013-01-03 17:01:00,17.5,9.4,30.36,ESE,114,1.0,0.0,70,0.00,,,0.00,0,WeatherHawk,2013-01-04 01:01:00,
2013-01-03 17:06:00,17.5,9.7,30.37,East,85,2.0,0.0,71,0.00,,,0.00,0,WeatherHawk,2013-01-04 01:06:00,
2013-01-03 17:11:00,17.1,9.4,30.37,NE,50,0.0,0.0,71,0.00,,,0.00,0,WeatherHawk,2013-01-04 01:11:00,
2013-01-03 17:16:00,17.3,9.6,30.37,East,91,2.0,0.0,71,0.00,,,0.00,0,WeatherHawk,2013-01-04 01:16:00,
2013-01-03 17:21:00,17.2,9.5,30.37,ESE,106,3.0,0.0,71,0.00,,,0.00,1,WeatherHawk,2013-01-04 01:21:00,
2013-01-03 17:26:00,17.2,9.4,30.37,East,94,3.0,0.0,71,0.00,,,0.00,0,WeatherHawk,2013-01-04 01:26:00,
2013-01-03 17:31:00,17.5,9.7,30.37,East,86,5.0,0.0,71,0.00,,,0.00,0,WeatherHawk,2013-01-04 01:31:00,
2013-01-03 17:36:00,17.0,9.3,30.37,East,93,2.0,0.0,71,0.00,,,0.00,0,WeatherHawk,2013-01-04 01:36:00,
2013-01-03 17:41:00,17.2,9.8,30.37,East,79,1.0,0.0,72,0.00,,,0.00,0,WeatherHawk,2013-01-04 01:41:00,
2013-01-03 17:46:00,17.2,10.0,30.37,East,94,0.0,0.0,73,0.00,,,0.00,0,WeatherHawk,2013-01-04 01:46:00,
2013-01-03 17:51:00,17.3,10.1,30.37,East,92,2.0,0.0,73,0.00,,,0.00,1,WeatherHawk,2013-01-04 01:51:00,
2013-01-03 17:56:00,16.7,9.0,30.38,ESE,119,2.0,0.0,71,0.00,,,0.00,0,WeatherHawk,2013-01-04 01:56:00,
2013-01-03 18:01:00,17.1,10.0,30.38,ESE,119,1.0,0.0,73,0.00,,,0.00,0,WeatherHawk,2013-01-04 02:01:00,
2013-01-03 18:07:00,17.2,9.4,30.38,East,101,3.0,0.0,71,0.00,,,0.00,1,WeatherHawk,2013-01-04 02:07:00,
2013-01-03 18:12:00,17.3,9.5,30.38,ESE,107,2.0,0.0,71,0.00,,,0.00,0,WeatherHawk,2013-01-04 02:12:00,
2013-01-03 18:17:00,17.0,9.6,30.38,ESE,107,1.0,0.0,72,0.00,,,0.00,0,WeatherHawk,2013-01-04 02:17:00,
2013-01-03 18:22:00,16.7,9.3,30.38,East,98,0.0,0.0,72,0.00,,,0.00,0,WeatherHawk,2013-01-04 02:22:00,
2013-01-03 18:27:00,17.6,10.5,30.38,East,100,2.0,0.0,73,0.00,,,0.00,0,WeatherHawk,2013-01-04 02:27:00,
2013-01-03 18:33:00,17.4,10.0,30.38,East,101,2.0,0.0,72,0.00,,,0.00,0,WeatherHawk,2013-01-04 02:33:00,
2013-01-03 18:38:00,17.9,9.8,30.38,East,101,2.0,0.0,70,0.00,,,0.00,0,WeatherHawk,2013-01-04 02:38:00,
2013-01-03 18:43:00,17.6,8.5,30.38,East,100,2.0,0.0,67,0.00,,,0.00,0,WeatherHawk,2013-01-04 02:43:00,
2013-01-03 18:48:00,17.5,9.4,30.38,NNE,22,0.0,0.0,70,0.00,,,0.00,0,WeatherHawk,2013-01-04 02:48:00,
2013-01-03 18:53:00,16.8,10.2,30.38,NNE,22,0.0,0.0,75,0.00,,,0.00,0,WeatherHawk,2013-01-04 02:53:00,
2013-01-03 18:59:00,16.6,10.6,30.38,NNE,22,0.0,0.0,77,0.00,,,0.00,0,WeatherHawk,2013-01-04 02:59:00,
2013-01-03 19:04:00,17.2,11.9,30.38,NNE,22,0.0,0.0,79,0.00,,,0.00,0,WeatherHawk,2013-01-04 03:04:00,
2013-01-03 19:09:00,17.2,12.1,30.38,NNE,22,0.0,0.0,80,0.00,,,0.00,0,WeatherHawk,2013-01-04 03:09:00,
2013-01-03 19:14:00,17.2,12.6,30.38,NNE,22,0.0,0.0,82,0.00,,,0.00,0,WeatherHawk,2013-01-04 03:14:00,
2013-01-03 19:19:00,17.0,11.9,30.38,NNW,340,0.0,0.0,80,0.00,,,0.00,0,WeatherHawk,2013-01-04 03:19:00,
2013-01-03 19:24:00,16.4,10.5,30.38,West,259,0.0,0.0,77,0.00,,,0.00,0,WeatherHawk,2013-01-04 03:24:00,
2013-01-03 19:29:00,17.0,11.6,30.39,West,259,0.0,0.0,79,0.00,,,0.00,0,WeatherHawk,2013-01-04 03:29:00,
2013-01-03 19:34:00,16.8,11.4,30.39,SW,218,1.0,0.0,79,0.00,,,0.00,0,WeatherHawk,2013-01-04 03:34:00,
2013-01-03 19:39:00,16.7,11.1,30.39,SW,218,0.0,0.0,78,0.00,,,0.00,0,WeatherHawk,2013-01-04 03:39:00,
2013-01-03 19:44:00,17.4,12.0,30.39,SW,218,0.0,0.0,79,0.00,,,0.00,0,WeatherHawk,2013-01-04 03:44:00,
2013-01-03 19:49:00,17.1,11.5,30.39,SW,218,0.0,0.0,78,0.00,,,0.00,0,WeatherHawk,2013-01-04 03:49:00,
2013-01-03 19:54:00,17.3,11.4,30.39,SW,218,0.0,0.0,77,0.00,,,0.00,0,WeatherHawk,2013-01-04 03:54:00,
2013-01-03 19:59:00,17.4,11.1,30.39,SW,218,0.0,0.0,76,0.00,,,0.00,0,WeatherHawk,2013-01-04 03:59:00,
2013-01-03 20:04:00,17.0,11.0,30.39,WNW,282,0.0,0.0,77,0.00,,,0.00,0,WeatherHawk,2013-01-04 04:04:00,
2013-01-03 20:09:00,17.1,11.8,30.38,West,261,0.0,0.0,79,0.00,,,0.00,0,WeatherHawk,2013-01-04 04:09:00,
2013-01-03 20:14:00,17.0,12.2,30.39,West,261,0.0,0.0,81,0.00,,,0.00,0,WeatherHawk,2013-01-04 04:14:00,
2013-01-03 20:19:00,16.6,12.1,30.39,South,181,0.0,0.0,82,0.00,,,0.00,0,WeatherHawk,2013-01-04 04:19:00,
2013-01-03 20:24:00,17.2,12.9,30.39,South,180,0.0,0.0,83,0.00,,,0.00,0,WeatherHawk,2013-01-04 04:24:00,
2013-01-03 20:29:00,16.3,12.0,30.39,South,180,0.0,0.0,83,0.00,,,0.00,1,WeatherHawk,2013-01-04 04:29:00,
2013-01-03 20:34:00,17.3,13.5,30.40,South,180,0.0,0.0,85,0.00,,,0.00,0,WeatherHawk,2013-01-04 04:34:00,
2013-01-03 20:39:00,17.5,13.5,30.39,North,4,0.0,0.0,84,0.00,,,0.00,0,WeatherHawk,2013-01-04 04:39:00,
2013-01-03 20:44:00,17.4,13.4,30.40,North,4,0.0,0.0,84,0.00,,,0.00,0,WeatherHawk,2013-01-04 04:44:00,
2013-01-03 20:49:00,17.3,13.6,30.40,North,4,0.0,-999.0,85,0.00,,,0.00,0,WeatherHawk,2013-01-04 04:49:00,
2013-01-03 20:54:00,17.2,13.4,30.39,East,96,2.0,-999.0,85,0.00,,,0.00,0,WeatherHawk,2013-01-04 04:54:00,
2013-01-03 20:59:00,17.1,13.1,30.39,East,96,1.0,0.0,84,0.00,,,0.00,0,WeatherHawk,2013-01-04 04:59:00,
2013-01-03 21:00:00,17.3,13.3,30.38,East,96,1.0,0.0,84,0.00,,,0.00,0,WeatherHawk,2013-01-04 05:00:00,
2013-01-03 21:01:00,16.9,12.9,30.39,East,96,0.0,0.0,84,0.00,,,0.00,0,WeatherHawk,2013-01-04 05:01:00,
2013-01-03 21:04:00,16.4,12.1,30.39,SE,128,3.0,0.0,83,0.00,,,0.00,0,WeatherHawk,2013-01-04 05:04:00,
2013-01-03 21:09:00,16.5,12.6,30.38,SE,138,2.0,0.0,84,0.00,,,0.00,0,WeatherHawk,2013-01-04 05:09:00,
2013-01-03 21:14:00,16.0,11.5,30.38,SE,125,0.0,0.0,82,0.00,,,0.00,0,WeatherHawk,2013-01-04 05:14:00,
2013-01-03 21:19:00,17.5,13.7,30.39,SE,145,0.0,0.0,85,0.00,,,0.00,0,WeatherHawk,2013-01-04 05:19:00,
2013-01-03 21:24:00,16.8,13.3,30.39,SE,145,0.0,0.0,86,0.00,,,0.00,0,WeatherHawk,2013-01-04 05:24:00,
2013-01-03 21:29:00,16.1,12.9,30.39,SE,145,1.0,0.0,87,0.00,,,0.00,1,WeatherHawk,2013-01-04 05:29:00,
2013-01-03 21:34:00,17.1,14.1,30.39,SE,145,0.0,0.0,88,0.00,,,0.00,0,WeatherHawk,2013-01-04 05:34:00,
2013-01-03 21:39:00,16.6,13.7,30.40,SE,145,0.0,0.0,88,0.00,,,0.00,0,WeatherHawk,2013-01-04 05:39:00,
2013-01-03 21:44:00,17.2,15.3,30.39,SE,145,0.0,0.0,92,0.00,,,0.00,0,WeatherHawk,2013-01-04 05:44:00,
2013-01-03 21:49:00,16.3,14.1,30.40,SE,126,1.0,0.0,91,0.00,,,0.00,0,WeatherHawk,2013-01-04 05:49:00,
2013-01-03 21:54:00,16.9,14.2,30.39,ESE,122,2.0,-999.0,89,0.00,,,0.00,0,WeatherHawk,2013-01-04 05:54:00,
2013-01-03 21:59:00,16.6,13.7,30.39,ESE,122,2.0,0.0,88,0.00,,,0.00,0,WeatherHawk,2013-01-04 05:59:00,
2013-01-03 22:04:00,15.8,12.9,30.39,ESE,122,0.0,0.0,88,0.00,,,0.00,0,WeatherHawk,2013-01-04 06:04:00,
2013-01-03 22:09:00,16.5,13.8,30.39,ESE,122,1.0,0.0,89,0.00,,,0.00,0,WeatherHawk,2013-01-04 06:09:00,
2013-01-03 22:15:00,16.4,13.5,30.40,ESE,122,0.0,0.0,88,0.00,,,0.00,0,WeatherHawk,2013-01-04 06:15:00,
2013-01-03 22:20:00,16.9,14.4,30.40,ESE,122,0.0,0.0,90,0.00,,,0.00,0,WeatherHawk,2013-01-04 06:20:00,
2013-01-03 22:25:00,16.1,14.0,30.40,East,99,1.0,0.0,91,0.00,,,0.00,0,WeatherHawk,2013-01-04 06:25:00,
2013-01-03 22:30:00,16.8,14.4,30.40,East,96,0.0,0.0,90,0.00,,,0.00,0,WeatherHawk,2013-01-04 06:30:00,
2013-01-03 22:35:00,17.0,14.6,30.40,East,96,0.0,0.0,90,0.00,,,0.00,1,WeatherHawk,2013-01-04 06:35:00,
2013-01-03 22:40:00,16.2,13.5,30.40,East,96,0.0,0.0,89,0.00,,,0.00,0,WeatherHawk,2013-01-04 06:40:00,
2013-01-03 22:45:00,16.4,14.0,30.40,ESE,116,0.0,0.0,90,0.00,,,0.00,0,WeatherHawk,2013-01-04 06:45:00,
2013-01-03 22:51:00,16.7,14.5,30.39,ESE,116,0.0,0.0,91,0.00,,,0.00,0,WeatherHawk,2013-01-04 06:51:00,
2013-01-03 22:56:00,17.1,15.2,30.40,NNE,27,0.0,0.0,92,0.00,,,0.00,0,WeatherHawk,2013-01-04 06:56:00,
2013-01-03 23:01:00,17.3,16.1,30.40,ENE,70,1.0,0.0,95,0.00,,,0.00,0,WeatherHawk,2013-01-04 07:01:00,
2013-01-03 23:06:00,16.9,16.2,30.40,NE,49,3.0,0.0,97,0.00,,,0.00,0,WeatherHawk,2013-01-04 07:06:00,
2013-01-03 23:11:00,17.0,16.3,30.39,NE,52,3.0,0.0,97,0.00,,,0.00,0,WeatherHawk,2013-01-04 07:11:00,
2013-01-03 23:16:00,17.0,16.3,30.39,NNE,27,1.0,0.0,97,0.00,,,0.00,0,WeatherHawk,2013-01-04 07:16:00,
2013-01-03 23:21:00,15.9,15.0,30.39,North,8,0.0,0.0,96,0.00,,,0.00,0,WeatherHawk,2013-01-04 07:21:00,
2013-01-03 23:26:00,16.3,15.4,30.40,SSE,164,0.0,0.0,96,0.00,,,0.00,0,WeatherHawk,2013-01-04 07:26:00,
2013-01-03 23:31:00,16.4,15.7,30.40,SSE,164,0.0,0.0,97,0.00,,,0.00,0,WeatherHawk,2013-01-04 07:31:00,
2013-01-03 23:36:00,16.7,16.2,30.39,SE,132,0.0,0.0,98,0.00,,,0.00,0,WeatherHawk,2013-01-04 07:36:00,
2013-01-03 23:41:00,16.1,15.7,30.40,SE,132,0.0,0.0,98,0.00,,,0.00,0,WeatherHawk,2013-01-04 07:41:00,
2013-01-03 23:46:00,16.2,15.9,30.39,SE,132,0.0,0.0,99,0.00,,,0.00,0,WeatherHawk,2013-01-04 07:46:00,
2013-01-03 23:51:00,16.5,16.5,30.40,SE,132,0.0,0.0,100,0.00,,,0.00,0,WeatherHawk,2013-01-04 07:51:00,
2013-01-03 23:56:00,16.5,16.5,30.39,ENE,57,0.0,0.0,100,0.00,,,0.00,0,WeatherHawk,2013-01-04 07:56:00,